<?xml version="1.0" encoding="UTF-8" standalone="no" ?>
<gpx xmlns="http://www.topografix.com/GPX/1/1" xmlns:xsi="http://www.w3.org/2001/XMLSchema-instance" xsi:schemaLocation="http://www.topografix.com/GPX/1/1 http://www.topografix.com/GPX/1/1/gpx.xsd" version="1.1" creator="VisuGPX - https://www.visugpx.com">
  <metadata>
    <name>Balade découverte : Réveil pré-cure</name>
    <desc><![CDATA[Petite mise en jambe rapide et sans complication]]></desc>
  </metadata>
  <trk>
    <name><![CDATA[SityTrail - touquet am j2]]></name>
    <trkseg>
      <trkpt lat="50.51511" lon="1.57704">
        <ele>1</ele>
        <time>2021-08-09T09:12:21.475Z</time>
      </trkpt>
      <trkpt lat="50.51512" lon="1.57703">
        <ele>1</ele>
        <time>2021-08-09T09:12:21.659Z</time>
      </trkpt>
      <trkpt lat="50.51516" lon="1.57703">
        <ele>1</ele>
        <time>2021-08-09T09:12:25.663Z</time>
      </trkpt>
      <trkpt lat="50.5152" lon="1.57701">
        <ele>1</ele>
        <time>2021-08-09T09:12:29.668Z</time>
      </trkpt>
      <trkpt lat="50.51526" lon="1.57699">
        <ele>1</ele>
        <time>2021-08-09T09:12:34.673Z</time>
      </trkpt>
      <trkpt lat="50.51532" lon="1.57697">
        <ele>1</ele>
        <time>2021-08-09T09:12:39.669Z</time>
      </trkpt>
      <trkpt lat="50.51537" lon="1.57695">
        <ele>1</ele>
        <time>2021-08-09T09:12:43.679Z</time>
      </trkpt>
      <trkpt lat="50.51543" lon="1.57695">
        <ele>1</ele>
        <time>2021-08-09T09:12:48.661Z</time>
      </trkpt>
      <trkpt lat="50.51547" lon="1.57693">
        <ele>1</ele>
        <time>2021-08-09T09:12:52.665Z</time>
      </trkpt>
      <trkpt lat="50.51553" lon="1.57693">
        <ele>1</ele>
        <time>2021-08-09T09:12:57.665Z</time>
      </trkpt>
      <trkpt lat="50.51557" lon="1.57694">
        <ele>1</ele>
        <time>2021-08-09T09:13:01.662Z</time>
      </trkpt>
      <trkpt lat="50.51561" lon="1.57693">
        <ele>1</ele>
        <time>2021-08-09T09:13:05.665Z</time>
      </trkpt>
      <trkpt lat="50.51567" lon="1.57693">
        <ele>1</ele>
        <time>2021-08-09T09:13:10.666Z</time>
      </trkpt>
      <trkpt lat="50.51573" lon="1.57692">
        <ele>3.9</ele>
        <time>2021-08-09T09:13:15.663Z</time>
      </trkpt>
      <trkpt lat="50.51579" lon="1.57691">
        <ele>3.9</ele>
        <time>2021-08-09T09:13:20.661Z</time>
      </trkpt>
      <trkpt lat="50.51584" lon="1.57689">
        <ele>3.8</ele>
        <time>2021-08-09T09:13:25.661Z</time>
      </trkpt>
      <trkpt lat="50.51589" lon="1.57686">
        <ele>3.7</ele>
        <time>2021-08-09T09:13:29.670Z</time>
      </trkpt>
      <trkpt lat="50.51594" lon="1.57685">
        <ele>3.7</ele>
        <time>2021-08-09T09:13:34.662Z</time>
      </trkpt>
      <trkpt lat="50.51598" lon="1.57684">
        <ele>3.6</ele>
        <time>2021-08-09T09:13:38.675Z</time>
      </trkpt>
      <trkpt lat="50.51603" lon="1.57684">
        <ele>3.6</ele>
        <time>2021-08-09T09:13:43.671Z</time>
      </trkpt>
      <trkpt lat="50.51609" lon="1.57685">
        <ele>3.7</ele>
        <time>2021-08-09T09:13:48.664Z</time>
      </trkpt>
      <trkpt lat="50.51613" lon="1.57685">
        <ele>3.7</ele>
        <time>2021-08-09T09:13:52.674Z</time>
      </trkpt>
      <trkpt lat="50.51619" lon="1.57686">
        <ele>3.7</ele>
        <time>2021-08-09T09:13:57.659Z</time>
      </trkpt>
      <trkpt lat="50.51624" lon="1.57687">
        <ele>3.7</ele>
        <time>2021-08-09T09:14:02.670Z</time>
      </trkpt>
      <trkpt lat="50.51629" lon="1.57687">
        <ele>1</ele>
        <time>2021-08-09T09:14:06.669Z</time>
      </trkpt>
      <trkpt lat="50.51634" lon="1.57685">
        <ele>1</ele>
        <time>2021-08-09T09:14:11.667Z</time>
      </trkpt>
      <trkpt lat="50.51639" lon="1.57685">
        <ele>1</ele>
        <time>2021-08-09T09:14:15.659Z</time>
      </trkpt>
      <trkpt lat="50.51644" lon="1.57684">
        <ele>1</ele>
        <time>2021-08-09T09:14:20.669Z</time>
      </trkpt>
      <trkpt lat="50.5165" lon="1.57683">
        <ele>1</ele>
        <time>2021-08-09T09:14:25.662Z</time>
      </trkpt>
      <trkpt lat="50.51655" lon="1.57683">
        <ele>1</ele>
        <time>2021-08-09T09:14:30.668Z</time>
      </trkpt>
      <trkpt lat="50.5166" lon="1.57683">
        <ele>1</ele>
        <time>2021-08-09T09:14:34.671Z</time>
      </trkpt>
      <trkpt lat="50.51666" lon="1.57681">
        <ele>1</ele>
        <time>2021-08-09T09:14:39.667Z</time>
      </trkpt>
      <trkpt lat="50.5167" lon="1.5768">
        <ele>3.5</ele>
        <time>2021-08-09T09:14:43.663Z</time>
      </trkpt>
      <trkpt lat="50.51675" lon="1.57681">
        <ele>1</ele>
        <time>2021-08-09T09:14:47.778Z</time>
      </trkpt>
      <trkpt lat="50.51681" lon="1.5768">
        <ele>3.5</ele>
        <time>2021-08-09T09:14:52.659Z</time>
      </trkpt>
      <trkpt lat="50.51687" lon="1.57678">
        <ele>3.4</ele>
        <time>2021-08-09T09:14:57.706Z</time>
      </trkpt>
      <trkpt lat="50.51694" lon="1.57677">
        <ele>3.4</ele>
        <time>2021-08-09T09:15:02.663Z</time>
      </trkpt>
      <trkpt lat="50.51699" lon="1.57675">
        <ele>3.3</ele>
        <time>2021-08-09T09:15:07.663Z</time>
      </trkpt>
      <trkpt lat="50.51705" lon="1.57674">
        <ele>3.3</ele>
        <time>2021-08-09T09:15:12.656Z</time>
      </trkpt>
      <trkpt lat="50.5171" lon="1.57673">
        <ele>3.2</ele>
        <time>2021-08-09T09:15:17.659Z</time>
      </trkpt>
      <trkpt lat="50.51717" lon="1.57671">
        <ele>3.1</ele>
        <time>2021-08-09T09:15:22.661Z</time>
      </trkpt>
      <trkpt lat="50.51722" lon="1.57663">
        <ele>3</ele>
        <time>2021-08-09T09:15:50.671Z</time>
      </trkpt>
      <trkpt lat="50.51723" lon="1.57663">
        <ele>3</ele>
        <time>2021-08-09T09:15:54.676Z</time>
      </trkpt>
      <trkpt lat="50.51728" lon="1.57658">
        <ele>3</ele>
        <time>2021-08-09T09:15:59.664Z</time>
      </trkpt>
      <trkpt lat="50.51731" lon="1.57653">
        <ele>3</ele>
        <time>2021-08-09T09:16:03.665Z</time>
      </trkpt>
      <trkpt lat="50.51733" lon="1.57647">
        <ele>3</ele>
        <time>2021-08-09T09:16:07.665Z</time>
      </trkpt>
      <trkpt lat="50.51735" lon="1.57639">
        <ele>3</ele>
        <time>2021-08-09T09:16:11.669Z</time>
      </trkpt>
      <trkpt lat="50.51737" lon="1.5763">
        <ele>2.7</ele>
        <time>2021-08-09T09:16:16.664Z</time>
      </trkpt>
      <trkpt lat="50.51739" lon="1.57621">
        <ele>2.4</ele>
        <time>2021-08-09T09:16:21.664Z</time>
      </trkpt>
      <trkpt lat="50.5174" lon="1.57614">
        <ele>2.1</ele>
        <time>2021-08-09T09:16:25.665Z</time>
      </trkpt>
      <trkpt lat="50.51739" lon="1.57605">
        <ele>2</ele>
        <time>2021-08-09T09:16:30.674Z</time>
      </trkpt>
      <trkpt lat="50.51742" lon="1.57599">
        <ele>2</ele>
        <time>2021-08-09T09:16:35.665Z</time>
      </trkpt>
      <trkpt lat="50.51746" lon="1.57598">
        <ele>2</ele>
        <time>2021-08-09T09:16:40.665Z</time>
      </trkpt>
      <trkpt lat="50.51749" lon="1.57595">
        <ele>2</ele>
        <time>2021-08-09T09:16:44.669Z</time>
      </trkpt>
      <trkpt lat="50.51753" lon="1.57602">
        <ele>2</ele>
        <time>2021-08-09T09:16:48.670Z</time>
      </trkpt>
      <trkpt lat="50.51754" lon="1.5761">
        <ele>2</ele>
        <time>2021-08-09T09:16:52.670Z</time>
      </trkpt>
      <trkpt lat="50.51759" lon="1.57614">
        <ele>2.1</ele>
        <time>2021-08-09T09:16:57.672Z</time>
      </trkpt>
      <trkpt lat="50.51763" lon="1.57618">
        <ele>2.2</ele>
        <time>2021-08-09T09:17:02.675Z</time>
      </trkpt>
      <trkpt lat="50.51763" lon="1.57617">
        <ele>2.2</ele>
        <time>2021-08-09T09:17:11.659Z</time>
      </trkpt>
      <trkpt lat="50.51763" lon="1.57617">
        <ele>2.2</ele>
        <time>2021-08-09T09:17:16.662Z</time>
      </trkpt>
      <trkpt lat="50.51766" lon="1.57617">
        <ele>2.2</ele>
        <time>2021-08-09T09:17:20.675Z</time>
      </trkpt>
      <trkpt lat="50.51772" lon="1.57614">
        <ele>2.1</ele>
        <time>2021-08-09T09:17:24.672Z</time>
      </trkpt>
      <trkpt lat="50.51779" lon="1.57613">
        <ele>2.1</ele>
        <time>2021-08-09T09:17:29.666Z</time>
      </trkpt>
      <trkpt lat="50.51785" lon="1.57615">
        <ele>2.1</ele>
        <time>2021-08-09T09:17:34.667Z</time>
      </trkpt>
      <trkpt lat="50.5179" lon="1.57617">
        <ele>2.2</ele>
        <time>2021-08-09T09:17:38.673Z</time>
      </trkpt>
      <trkpt lat="50.51797" lon="1.57618">
        <ele>2.2</ele>
        <time>2021-08-09T09:17:43.661Z</time>
      </trkpt>
      <trkpt lat="50.51802" lon="1.57615">
        <ele>2.1</ele>
        <time>2021-08-09T09:17:47.662Z</time>
      </trkpt>
      <trkpt lat="50.51808" lon="1.57616">
        <ele>2.2</ele>
        <time>2021-08-09T09:17:52.667Z</time>
      </trkpt>
      <trkpt lat="50.51813" lon="1.57617">
        <ele>2.2</ele>
        <time>2021-08-09T09:17:57.668Z</time>
      </trkpt>
      <trkpt lat="50.51816" lon="1.57619">
        <ele>2.3</ele>
        <time>2021-08-09T09:18:02.661Z</time>
      </trkpt>
      <trkpt lat="50.51817" lon="1.57626">
        <ele>2.5</ele>
        <time>2021-08-09T09:18:06.668Z</time>
      </trkpt>
      <trkpt lat="50.51823" lon="1.57629">
        <ele>2.7</ele>
        <time>2021-08-09T09:18:11.664Z</time>
      </trkpt>
      <trkpt lat="50.51827" lon="1.57633">
        <ele>2.8</ele>
        <time>2021-08-09T09:18:15.660Z</time>
      </trkpt>
      <trkpt lat="50.51832" lon="1.57635">
        <ele>2.8</ele>
        <time>2021-08-09T09:18:20.666Z</time>
      </trkpt>
      <trkpt lat="50.51835" lon="1.57638">
        <ele>3</ele>
        <time>2021-08-09T09:18:24.668Z</time>
      </trkpt>
      <trkpt lat="50.51841" lon="1.57637">
        <ele>2.9</ele>
        <time>2021-08-09T09:18:29.668Z</time>
      </trkpt>
      <trkpt lat="50.51847" lon="1.57637">
        <ele>2.9</ele>
        <time>2021-08-09T09:18:34.670Z</time>
      </trkpt>
      <trkpt lat="50.51851" lon="1.57638">
        <ele>3</ele>
        <time>2021-08-09T09:18:38.670Z</time>
      </trkpt>
      <trkpt lat="50.51856" lon="1.57638">
        <ele>3</ele>
        <time>2021-08-09T09:18:42.724Z</time>
      </trkpt>
      <trkpt lat="50.51862" lon="1.57638">
        <ele>3</ele>
        <time>2021-08-09T09:18:47.662Z</time>
      </trkpt>
      <trkpt lat="50.51866" lon="1.57637">
        <ele>2.8</ele>
        <time>2021-08-09T09:18:51.670Z</time>
      </trkpt>
      <trkpt lat="50.51871" lon="1.57636">
        <ele>2.5</ele>
        <time>2021-08-09T09:18:56.660Z</time>
      </trkpt>
      <trkpt lat="50.51873" lon="1.57636">
        <ele>2.5</ele>
        <time>2021-08-09T09:19:00.658Z</time>
      </trkpt>
      <trkpt lat="50.51877" lon="1.57634">
        <ele>2.2</ele>
        <time>2021-08-09T09:19:05.681Z</time>
      </trkpt>
      <trkpt lat="50.51882" lon="1.57632">
        <ele>2</ele>
        <time>2021-08-09T09:19:10.663Z</time>
      </trkpt>
      <trkpt lat="50.51885" lon="1.57633">
        <ele>1.9</ele>
        <time>2021-08-09T09:19:15.658Z</time>
      </trkpt>
      <trkpt lat="50.51885" lon="1.57632">
        <ele>1.9</ele>
        <time>2021-08-09T09:19:19.658Z</time>
      </trkpt>
      <trkpt lat="50.51891" lon="1.57629">
        <ele>1.6</ele>
        <time>2021-08-09T09:19:24.664Z</time>
      </trkpt>
      <trkpt lat="50.51893" lon="1.5762">
        <ele>1.3</ele>
        <time>2021-08-09T09:19:29.668Z</time>
      </trkpt>
      <trkpt lat="50.51897" lon="1.57618">
        <ele>1.3</ele>
        <time>2021-08-09T09:19:34.671Z</time>
      </trkpt>
      <trkpt lat="50.51898" lon="1.57612">
        <ele>1</ele>
        <time>2021-08-09T09:19:38.669Z</time>
      </trkpt>
      <trkpt lat="50.51896" lon="1.57606">
        <ele>1</ele>
        <time>2021-08-09T09:19:43.661Z</time>
      </trkpt>
      <trkpt lat="50.51896" lon="1.576">
        <ele>1</ele>
        <time>2021-08-09T09:19:47.678Z</time>
      </trkpt>
      <trkpt lat="50.51899" lon="1.57593">
        <ele>1</ele>
        <time>2021-08-09T09:19:52.666Z</time>
      </trkpt>
      <trkpt lat="50.51904" lon="1.57591">
        <ele>1</ele>
        <time>2021-08-09T09:19:57.673Z</time>
      </trkpt>
      <trkpt lat="50.5191" lon="1.5759">
        <ele>1</ele>
        <time>2021-08-09T09:20:02.664Z</time>
      </trkpt>
      <trkpt lat="50.51918" lon="1.57594">
        <ele>1</ele>
        <time>2021-08-09T09:20:38.669Z</time>
      </trkpt>
      <trkpt lat="50.51919" lon="1.57594">
        <ele>1</ele>
        <time>2021-08-09T09:20:42.667Z</time>
      </trkpt>
      <trkpt lat="50.51921" lon="1.57593">
        <ele>1</ele>
        <time>2021-08-09T09:20:47.660Z</time>
      </trkpt>
      <trkpt lat="50.51926" lon="1.57589">
        <ele>1</ele>
        <time>2021-08-09T09:20:51.664Z</time>
      </trkpt>
      <trkpt lat="50.5193" lon="1.57589">
        <ele>1</ele>
        <time>2021-08-09T09:20:55.665Z</time>
      </trkpt>
      <trkpt lat="50.51937" lon="1.57588">
        <ele>1</ele>
        <time>2021-08-09T09:21:00.667Z</time>
      </trkpt>
      <trkpt lat="50.51942" lon="1.5759">
        <ele>1</ele>
        <time>2021-08-09T09:21:04.670Z</time>
      </trkpt>
      <trkpt lat="50.51948" lon="1.57589">
        <ele>1</ele>
        <time>2021-08-09T09:21:09.664Z</time>
      </trkpt>
      <trkpt lat="50.51952" lon="1.57589">
        <ele>1</ele>
        <time>2021-08-09T09:21:14.660Z</time>
      </trkpt>
      <trkpt lat="50.51952" lon="1.57588">
        <ele>1</ele>
        <time>2021-08-09T09:21:19.657Z</time>
      </trkpt>
      <trkpt lat="50.51959" lon="1.57589">
        <ele>1</ele>
        <time>2021-08-09T09:21:24.668Z</time>
      </trkpt>
      <trkpt lat="50.51964" lon="1.57593">
        <ele>1</ele>
        <time>2021-08-09T09:21:28.679Z</time>
      </trkpt>
      <trkpt lat="50.51971" lon="1.57595">
        <ele>1</ele>
        <time>2021-08-09T09:21:33.664Z</time>
      </trkpt>
      <trkpt lat="50.51976" lon="1.57599">
        <ele>1</ele>
        <time>2021-08-09T09:21:37.680Z</time>
      </trkpt>
      <trkpt lat="50.51981" lon="1.57603">
        <ele>1</ele>
        <time>2021-08-09T09:21:42.667Z</time>
      </trkpt>
      <trkpt lat="50.51986" lon="1.57606">
        <ele>1</ele>
        <time>2021-08-09T09:21:47.665Z</time>
      </trkpt>
      <trkpt lat="50.51987" lon="1.57607">
        <ele>1</ele>
        <time>2021-08-09T09:21:52.665Z</time>
      </trkpt>
      <trkpt lat="50.51989" lon="1.57607">
        <ele>1</ele>
        <time>2021-08-09T09:21:57.661Z</time>
      </trkpt>
      <trkpt lat="50.51994" lon="1.57612">
        <ele>1</ele>
        <time>2021-08-09T09:22:02.674Z</time>
      </trkpt>
      <trkpt lat="50.52" lon="1.57617">
        <ele>1.2</ele>
        <time>2021-08-09T09:22:07.657Z</time>
      </trkpt>
      <trkpt lat="50.52006" lon="1.57622">
        <ele>1.4</ele>
        <time>2021-08-09T09:22:12.665Z</time>
      </trkpt>
      <trkpt lat="50.52011" lon="1.57627">
        <ele>1.6</ele>
        <time>2021-08-09T09:22:17.661Z</time>
      </trkpt>
      <trkpt lat="50.52016" lon="1.57629">
        <ele>1.6</ele>
        <time>2021-08-09T09:22:21.666Z</time>
      </trkpt>
      <trkpt lat="50.52021" lon="1.57633">
        <ele>1.8</ele>
        <time>2021-08-09T09:22:26.678Z</time>
      </trkpt>
      <trkpt lat="50.52026" lon="1.57636">
        <ele>1.9</ele>
        <time>2021-08-09T09:22:31.669Z</time>
      </trkpt>
      <trkpt lat="50.5203" lon="1.5764">
        <ele>2</ele>
        <time>2021-08-09T09:22:35.666Z</time>
      </trkpt>
      <trkpt lat="50.52035" lon="1.57645">
        <ele>2.2</ele>
        <time>2021-08-09T09:22:40.668Z</time>
      </trkpt>
      <trkpt lat="50.5204" lon="1.57648">
        <ele>2.3</ele>
        <time>2021-08-09T09:22:45.666Z</time>
      </trkpt>
      <trkpt lat="50.52042" lon="1.57648">
        <ele>2.3</ele>
        <time>2021-08-09T09:22:49.662Z</time>
      </trkpt>
      <trkpt lat="50.52042" lon="1.57648">
        <ele>2.3</ele>
        <time>2021-08-09T09:22:54.664Z</time>
      </trkpt>
      <trkpt lat="50.52042" lon="1.57648">
        <ele>2.3</ele>
        <time>2021-08-09T09:22:59.664Z</time>
      </trkpt>
      <trkpt lat="50.52045" lon="1.5765">
        <ele>2.4</ele>
        <time>2021-08-09T09:23:03.665Z</time>
      </trkpt>
      <trkpt lat="50.5205" lon="1.57653">
        <ele>2.5</ele>
        <time>2021-08-09T09:23:08.662Z</time>
      </trkpt>
      <trkpt lat="50.52054" lon="1.57654">
        <ele>2.5</ele>
        <time>2021-08-09T09:23:12.663Z</time>
      </trkpt>
      <trkpt lat="50.52054" lon="1.57655">
        <ele>2.6</ele>
        <time>2021-08-09T09:23:17.667Z</time>
      </trkpt>
      <trkpt lat="50.52058" lon="1.57657">
        <ele>2.6</ele>
        <time>2021-08-09T09:23:22.661Z</time>
      </trkpt>
      <trkpt lat="50.52063" lon="1.57661">
        <ele>2.8</ele>
        <time>2021-08-09T09:23:27.657Z</time>
      </trkpt>
      <trkpt lat="50.52066" lon="1.57663">
        <ele>2.9</ele>
        <time>2021-08-09T09:23:31.667Z</time>
      </trkpt>
      <trkpt lat="50.52071" lon="1.57664">
        <ele>2.9</ele>
        <time>2021-08-09T09:23:36.660Z</time>
      </trkpt>
      <trkpt lat="50.52077" lon="1.57662">
        <ele>2.8</ele>
        <time>2021-08-09T09:23:41.666Z</time>
      </trkpt>
      <trkpt lat="50.52081" lon="1.57665">
        <ele>2.9</ele>
        <time>2021-08-09T09:23:46.658Z</time>
      </trkpt>
      <trkpt lat="50.52087" lon="1.57668">
        <ele>3</ele>
        <time>2021-08-09T09:23:51.665Z</time>
      </trkpt>
      <trkpt lat="50.52091" lon="1.5767">
        <ele>3</ele>
        <time>2021-08-09T09:23:55.669Z</time>
      </trkpt>
      <trkpt lat="50.52096" lon="1.57672">
        <ele>3</ele>
        <time>2021-08-09T09:24:00.663Z</time>
      </trkpt>
      <trkpt lat="50.521" lon="1.57675">
        <ele>3</ele>
        <time>2021-08-09T09:24:05.665Z</time>
      </trkpt>
      <trkpt lat="50.52106" lon="1.57676">
        <ele>3</ele>
        <time>2021-08-09T09:24:10.661Z</time>
      </trkpt>
      <trkpt lat="50.5211" lon="1.57678">
        <ele>3</ele>
        <time>2021-08-09T09:24:14.656Z</time>
      </trkpt>
      <trkpt lat="50.52115" lon="1.57679">
        <ele>3</ele>
        <time>2021-08-09T09:24:18.668Z</time>
      </trkpt>
      <trkpt lat="50.5212" lon="1.57681">
        <ele>3</ele>
        <time>2021-08-09T09:24:23.660Z</time>
      </trkpt>
      <trkpt lat="50.52125" lon="1.57682">
        <ele>3</ele>
        <time>2021-08-09T09:24:28.660Z</time>
      </trkpt>
      <trkpt lat="50.52129" lon="1.57683">
        <ele>3</ele>
        <time>2021-08-09T09:24:32.656Z</time>
      </trkpt>
      <trkpt lat="50.52133" lon="1.57683">
        <ele>3</ele>
        <time>2021-08-09T09:24:36.672Z</time>
      </trkpt>
      <trkpt lat="50.52139" lon="1.57683">
        <ele>3</ele>
        <time>2021-08-09T09:24:41.670Z</time>
      </trkpt>
      <trkpt lat="50.52143" lon="1.57684">
        <ele>3</ele>
        <time>2021-08-09T09:24:45.671Z</time>
      </trkpt>
      <trkpt lat="50.52148" lon="1.57686">
        <ele>3</ele>
        <time>2021-08-09T09:24:50.665Z</time>
      </trkpt>
      <trkpt lat="50.52153" lon="1.57689">
        <ele>3</ele>
        <time>2021-08-09T09:24:55.663Z</time>
      </trkpt>
      <trkpt lat="50.52158" lon="1.5769">
        <ele>3</ele>
        <time>2021-08-09T09:24:59.670Z</time>
      </trkpt>
      <trkpt lat="50.52164" lon="1.57691">
        <ele>3</ele>
        <time>2021-08-09T09:25:04.662Z</time>
      </trkpt>
      <trkpt lat="50.5217" lon="1.57689">
        <ele>3</ele>
        <time>2021-08-09T09:25:09.666Z</time>
      </trkpt>
      <trkpt lat="50.52175" lon="1.57689">
        <ele>3</ele>
        <time>2021-08-09T09:25:14.665Z</time>
      </trkpt>
      <trkpt lat="50.52179" lon="1.57689">
        <ele>3</ele>
        <time>2021-08-09T09:25:18.666Z</time>
      </trkpt>
      <trkpt lat="50.52184" lon="1.57689">
        <ele>3</ele>
        <time>2021-08-09T09:25:22.674Z</time>
      </trkpt>
      <trkpt lat="50.52189" lon="1.5769">
        <ele>3</ele>
        <time>2021-08-09T09:25:27.667Z</time>
      </trkpt>
      <trkpt lat="50.52195" lon="1.57691">
        <ele>3</ele>
        <time>2021-08-09T09:25:32.683Z</time>
      </trkpt>
      <trkpt lat="50.522" lon="1.57692">
        <ele>3</ele>
        <time>2021-08-09T09:25:37.672Z</time>
      </trkpt>
      <trkpt lat="50.52205" lon="1.57693">
        <ele>3</ele>
        <time>2021-08-09T09:25:41.671Z</time>
      </trkpt>
      <trkpt lat="50.5221" lon="1.57694">
        <ele>3</ele>
        <time>2021-08-09T09:25:46.678Z</time>
      </trkpt>
      <trkpt lat="50.52216" lon="1.57695">
        <ele>3</ele>
        <time>2021-08-09T09:25:51.669Z</time>
      </trkpt>
      <trkpt lat="50.5222" lon="1.57694">
        <ele>3</ele>
        <time>2021-08-09T09:25:55.672Z</time>
      </trkpt>
      <trkpt lat="50.52226" lon="1.57692">
        <ele>2.9</ele>
        <time>2021-08-09T09:26:00.657Z</time>
      </trkpt>
      <trkpt lat="50.5223" lon="1.5769">
        <ele>2.8</ele>
        <time>2021-08-09T09:26:04.664Z</time>
      </trkpt>
      <trkpt lat="50.52235" lon="1.57688">
        <ele>2.8</ele>
        <time>2021-08-09T09:26:09.668Z</time>
      </trkpt>
      <trkpt lat="50.52241" lon="1.57686">
        <ele>2.7</ele>
        <time>2021-08-09T09:26:14.674Z</time>
      </trkpt>
      <trkpt lat="50.52245" lon="1.57685">
        <ele>2.7</ele>
        <time>2021-08-09T09:26:18.680Z</time>
      </trkpt>
      <trkpt lat="50.5225" lon="1.57687">
        <ele>2.7</ele>
        <time>2021-08-09T09:26:33.662Z</time>
      </trkpt>
      <trkpt lat="50.52254" lon="1.57687">
        <ele>2.7</ele>
        <time>2021-08-09T09:26:38.661Z</time>
      </trkpt>
      <trkpt lat="50.52258" lon="1.57687">
        <ele>2.7</ele>
        <time>2021-08-09T09:26:42.661Z</time>
      </trkpt>
      <trkpt lat="50.52263" lon="1.57687">
        <ele>2.7</ele>
        <time>2021-08-09T09:26:46.668Z</time>
      </trkpt>
      <trkpt lat="50.52268" lon="1.57689">
        <ele>2.8</ele>
        <time>2021-08-09T09:26:51.668Z</time>
      </trkpt>
      <trkpt lat="50.52272" lon="1.57689">
        <ele>2.8</ele>
        <time>2021-08-09T09:26:55.664Z</time>
      </trkpt>
      <trkpt lat="50.52278" lon="1.57689">
        <ele>2.8</ele>
        <time>2021-08-09T09:27:00.665Z</time>
      </trkpt>
      <trkpt lat="50.52283" lon="1.57691">
        <ele>2.9</ele>
        <time>2021-08-09T09:27:05.673Z</time>
      </trkpt>
      <trkpt lat="50.52288" lon="1.57695">
        <ele>3</ele>
        <time>2021-08-09T09:27:10.663Z</time>
      </trkpt>
      <trkpt lat="50.52293" lon="1.57697">
        <ele>3</ele>
        <time>2021-08-09T09:27:15.673Z</time>
      </trkpt>
      <trkpt lat="50.52299" lon="1.57699">
        <ele>3</ele>
        <time>2021-08-09T09:27:20.777Z</time>
      </trkpt>
      <trkpt lat="50.52304" lon="1.577">
        <ele>3</ele>
        <time>2021-08-09T09:27:25.665Z</time>
      </trkpt>
      <trkpt lat="50.52309" lon="1.57702">
        <ele>3</ele>
        <time>2021-08-09T09:27:30.667Z</time>
      </trkpt>
      <trkpt lat="50.52313" lon="1.57705">
        <ele>3</ele>
        <time>2021-08-09T09:27:34.671Z</time>
      </trkpt>
      <trkpt lat="50.52316" lon="1.57712">
        <ele>3</ele>
        <time>2021-08-09T09:27:39.675Z</time>
      </trkpt>
      <trkpt lat="50.5232" lon="1.57718">
        <ele>3</ele>
        <time>2021-08-09T09:27:44.667Z</time>
      </trkpt>
      <trkpt lat="50.52323" lon="1.57723">
        <ele>3</ele>
        <time>2021-08-09T09:27:48.676Z</time>
      </trkpt>
      <trkpt lat="50.52327" lon="1.5773">
        <ele>3.3</ele>
        <time>2021-08-09T09:27:53.669Z</time>
      </trkpt>
      <trkpt lat="50.5233" lon="1.57737">
        <ele>3.5</ele>
        <time>2021-08-09T09:27:58.668Z</time>
      </trkpt>
      <trkpt lat="50.52332" lon="1.57745">
        <ele>3.8</ele>
        <time>2021-08-09T09:28:02.672Z</time>
      </trkpt>
      <trkpt lat="50.52334" lon="1.57752">
        <ele>4</ele>
        <time>2021-08-09T09:28:07.661Z</time>
      </trkpt>
      <trkpt lat="50.52337" lon="1.57757">
        <ele>3.9</ele>
        <time>2021-08-09T09:28:11.680Z</time>
      </trkpt>
      <trkpt lat="50.52339" lon="1.57764">
        <ele>3.9</ele>
        <time>2021-08-09T09:28:15.668Z</time>
      </trkpt>
      <trkpt lat="50.52342" lon="1.57771">
        <ele>3.9</ele>
        <time>2021-08-09T09:28:20.665Z</time>
      </trkpt>
      <trkpt lat="50.52346" lon="1.57776">
        <ele>4</ele>
        <time>2021-08-09T09:28:24.669Z</time>
      </trkpt>
      <trkpt lat="50.52348" lon="1.57781">
        <ele>4</ele>
        <time>2021-08-09T09:28:28.666Z</time>
      </trkpt>
      <trkpt lat="50.5235" lon="1.57787">
        <ele>4</ele>
        <time>2021-08-09T09:28:32.677Z</time>
      </trkpt>
      <trkpt lat="50.52353" lon="1.5779">
        <ele>4</ele>
        <time>2021-08-09T09:28:36.675Z</time>
      </trkpt>
      <trkpt lat="50.52359" lon="1.5779">
        <ele>4</ele>
        <time>2021-08-09T09:28:41.668Z</time>
      </trkpt>
      <trkpt lat="50.52362" lon="1.57792">
        <ele>4</ele>
        <time>2021-08-09T09:28:45.670Z</time>
      </trkpt>
      <trkpt lat="50.52366" lon="1.57793">
        <ele>4</ele>
        <time>2021-08-09T09:28:50.666Z</time>
      </trkpt>
      <trkpt lat="50.52371" lon="1.57793">
        <ele>4</ele>
        <time>2021-08-09T09:28:55.663Z</time>
      </trkpt>
      <trkpt lat="50.52375" lon="1.57794">
        <ele>4</ele>
        <time>2021-08-09T09:28:59.657Z</time>
      </trkpt>
      <trkpt lat="50.52381" lon="1.57793">
        <ele>4</ele>
        <time>2021-08-09T09:29:40.670Z</time>
      </trkpt>
      <trkpt lat="50.52381" lon="1.57793">
        <ele>4</ele>
        <time>2021-08-09T09:29:44.665Z</time>
      </trkpt>
      <trkpt lat="50.52381" lon="1.57793">
        <ele>4</ele>
        <time>2021-08-09T09:29:48.675Z</time>
      </trkpt>
      <trkpt lat="50.52385" lon="1.57791">
        <ele>4</ele>
        <time>2021-08-09T09:29:53.668Z</time>
      </trkpt>
      <trkpt lat="50.52388" lon="1.57792">
        <ele>4</ele>
        <time>2021-08-09T09:29:57.665Z</time>
      </trkpt>
      <trkpt lat="50.52392" lon="1.57793">
        <ele>4</ele>
        <time>2021-08-09T09:30:02.666Z</time>
      </trkpt>
      <trkpt lat="50.52397" lon="1.57794">
        <ele>4</ele>
        <time>2021-08-09T09:30:07.664Z</time>
      </trkpt>
      <trkpt lat="50.52402" lon="1.57795">
        <ele>4</ele>
        <time>2021-08-09T09:30:12.676Z</time>
      </trkpt>
      <trkpt lat="50.52406" lon="1.57796">
        <ele>4</ele>
        <time>2021-08-09T09:30:17.669Z</time>
      </trkpt>
      <trkpt lat="50.5241" lon="1.57801">
        <ele>4</ele>
        <time>2021-08-09T09:30:22.659Z</time>
      </trkpt>
      <trkpt lat="50.52415" lon="1.57804">
        <ele>4</ele>
        <time>2021-08-09T09:30:27.671Z</time>
      </trkpt>
      <trkpt lat="50.52418" lon="1.57808">
        <ele>4</ele>
        <time>2021-08-09T09:30:32.662Z</time>
      </trkpt>
      <trkpt lat="50.52422" lon="1.57811">
        <ele>4</ele>
        <time>2021-08-09T09:30:36.667Z</time>
      </trkpt>
      <trkpt lat="50.52427" lon="1.57814">
        <ele>4</ele>
        <time>2021-08-09T09:30:41.659Z</time>
      </trkpt>
      <trkpt lat="50.52431" lon="1.57816">
        <ele>4</ele>
        <time>2021-08-09T09:30:45.670Z</time>
      </trkpt>
      <trkpt lat="50.52436" lon="1.57818">
        <ele>4</ele>
        <time>2021-08-09T09:30:50.835Z</time>
      </trkpt>
      <trkpt lat="50.52441" lon="1.57821">
        <ele>4</ele>
        <time>2021-08-09T09:30:55.671Z</time>
      </trkpt>
      <trkpt lat="50.52446" lon="1.57824">
        <ele>4</ele>
        <time>2021-08-09T09:31:00.663Z</time>
      </trkpt>
      <trkpt lat="50.5245" lon="1.57827">
        <ele>4</ele>
        <time>2021-08-09T09:31:04.671Z</time>
      </trkpt>
      <trkpt lat="50.52455" lon="1.57829">
        <ele>4</ele>
        <time>2021-08-09T09:31:09.674Z</time>
      </trkpt>
      <trkpt lat="50.5246" lon="1.57833">
        <ele>4</ele>
        <time>2021-08-09T09:31:14.679Z</time>
      </trkpt>
      <trkpt lat="50.52464" lon="1.57838">
        <ele>4.3</ele>
        <time>2021-08-09T09:31:19.670Z</time>
      </trkpt>
      <trkpt lat="50.52469" lon="1.57842">
        <ele>4.6</ele>
        <time>2021-08-09T09:31:24.666Z</time>
      </trkpt>
      <trkpt lat="50.52474" lon="1.57846">
        <ele>4.9</ele>
        <time>2021-08-09T09:31:28.680Z</time>
      </trkpt>
      <trkpt lat="50.52478" lon="1.5785">
        <ele>1</ele>
        <time>2021-08-09T09:31:33.666Z</time>
      </trkpt>
      <trkpt lat="50.52483" lon="1.57854">
        <ele>1</ele>
        <time>2021-08-09T09:31:38.674Z</time>
      </trkpt>
      <trkpt lat="50.52488" lon="1.57858">
        <ele>5.3</ele>
        <time>2021-08-09T09:31:43.665Z</time>
      </trkpt>
      <trkpt lat="50.52491" lon="1.57862">
        <ele>5.3</ele>
        <time>2021-08-09T09:31:47.663Z</time>
      </trkpt>
      <trkpt lat="50.52496" lon="1.57868">
        <ele>5.3</ele>
        <time>2021-08-09T09:31:52.661Z</time>
      </trkpt>
      <trkpt lat="50.525" lon="1.57872">
        <ele>5.4</ele>
        <time>2021-08-09T09:31:56.674Z</time>
      </trkpt>
      <trkpt lat="50.52505" lon="1.57876">
        <ele>1</ele>
        <time>2021-08-09T09:32:01.668Z</time>
      </trkpt>
      <trkpt lat="50.52509" lon="1.5788">
        <ele>1</ele>
        <time>2021-08-09T09:32:05.663Z</time>
      </trkpt>
      <trkpt lat="50.52514" lon="1.57884">
        <ele>1</ele>
        <time>2021-08-09T09:32:10.662Z</time>
      </trkpt>
      <trkpt lat="50.52517" lon="1.57888">
        <ele>3</ele>
        <time>2021-08-09T09:32:14.670Z</time>
      </trkpt>
      <trkpt lat="50.52523" lon="1.57891">
        <ele>3</ele>
        <time>2021-08-09T09:32:19.665Z</time>
      </trkpt>
      <trkpt lat="50.52529" lon="1.57892">
        <ele>3</ele>
        <time>2021-08-09T09:32:23.666Z</time>
      </trkpt>
      <trkpt lat="50.52534" lon="1.57896">
        <ele>3</ele>
        <time>2021-08-09T09:32:28.668Z</time>
      </trkpt>
      <trkpt lat="50.52537" lon="1.57896">
        <ele>3</ele>
        <time>2021-08-09T09:32:33.658Z</time>
      </trkpt>
      <trkpt lat="50.52537" lon="1.57896">
        <ele>3</ele>
        <time>2021-08-09T09:32:37.675Z</time>
      </trkpt>
      <trkpt lat="50.52539" lon="1.57898">
        <ele>3</ele>
        <time>2021-08-09T09:32:42.664Z</time>
      </trkpt>
      <trkpt lat="50.52542" lon="1.57901">
        <ele>6</ele>
        <time>2021-08-09T09:32:46.677Z</time>
      </trkpt>
      <trkpt lat="50.52547" lon="1.57904">
        <ele>1</ele>
        <time>2021-08-09T09:32:51.671Z</time>
      </trkpt>
      <trkpt lat="50.5255" lon="1.57906">
        <ele>1</ele>
        <time>2021-08-09T09:32:55.661Z</time>
      </trkpt>
      <trkpt lat="50.52554" lon="1.57909">
        <ele>1</ele>
        <time>2021-08-09T09:33:00.660Z</time>
      </trkpt>
      <trkpt lat="50.52558" lon="1.5791">
        <ele>1</ele>
        <time>2021-08-09T09:33:05.664Z</time>
      </trkpt>
      <trkpt lat="50.52562" lon="1.57912">
        <ele>1</ele>
        <time>2021-08-09T09:33:09.674Z</time>
      </trkpt>
      <trkpt lat="50.52567" lon="1.57914">
        <ele>1</ele>
        <time>2021-08-09T09:33:14.661Z</time>
      </trkpt>
      <trkpt lat="50.52571" lon="1.57916">
        <ele>1</ele>
        <time>2021-08-09T09:33:18.659Z</time>
      </trkpt>
      <trkpt lat="50.52575" lon="1.57919">
        <ele>1</ele>
        <time>2021-08-09T09:33:22.666Z</time>
      </trkpt>
      <trkpt lat="50.52579" lon="1.5792">
        <ele>1</ele>
        <time>2021-08-09T09:33:26.682Z</time>
      </trkpt>
      <trkpt lat="50.52586" lon="1.57922">
        <ele>1</ele>
        <time>2021-08-09T09:33:40.686Z</time>
      </trkpt>
      <trkpt lat="50.52586" lon="1.57922">
        <ele>1</ele>
        <time>2021-08-09T09:33:45.674Z</time>
      </trkpt>
      <trkpt lat="50.52588" lon="1.57923">
        <ele>1</ele>
        <time>2021-08-09T09:33:50.669Z</time>
      </trkpt>
      <trkpt lat="50.52591" lon="1.57924">
        <ele>1</ele>
        <time>2021-08-09T09:33:54.668Z</time>
      </trkpt>
      <trkpt lat="50.52599" lon="1.57929">
        <ele>1</ele>
        <time>2021-08-09T09:33:59.666Z</time>
      </trkpt>
      <trkpt lat="50.52603" lon="1.57932">
        <ele>1</ele>
        <time>2021-08-09T09:34:04.671Z</time>
      </trkpt>
      <trkpt lat="50.52606" lon="1.57935">
        <ele>1</ele>
        <time>2021-08-09T09:34:08.669Z</time>
      </trkpt>
      <trkpt lat="50.52609" lon="1.57938">
        <ele>1</ele>
        <time>2021-08-09T09:34:13.676Z</time>
      </trkpt>
      <trkpt lat="50.52612" lon="1.57942">
        <ele>1</ele>
        <time>2021-08-09T09:34:18.663Z</time>
      </trkpt>
      <trkpt lat="50.52616" lon="1.57947">
        <ele>1</ele>
        <time>2021-08-09T09:34:23.674Z</time>
      </trkpt>
      <trkpt lat="50.52619" lon="1.57951">
        <ele>1</ele>
        <time>2021-08-09T09:34:28.681Z</time>
      </trkpt>
      <trkpt lat="50.52623" lon="1.57954">
        <ele>1</ele>
        <time>2021-08-09T09:34:33.677Z</time>
      </trkpt>
      <trkpt lat="50.52628" lon="1.57955">
        <ele>1</ele>
        <time>2021-08-09T09:34:38.682Z</time>
      </trkpt>
      <trkpt lat="50.52633" lon="1.57957">
        <ele>1</ele>
        <time>2021-08-09T09:34:43.668Z</time>
      </trkpt>
      <trkpt lat="50.52637" lon="1.57961">
        <ele>2</ele>
        <time>2021-08-09T09:34:48.680Z</time>
      </trkpt>
      <trkpt lat="50.5264" lon="1.57966">
        <ele>2</ele>
        <time>2021-08-09T09:34:53.678Z</time>
      </trkpt>
      <trkpt lat="50.52639" lon="1.57975">
        <ele>2</ele>
        <time>2021-08-09T09:34:58.667Z</time>
      </trkpt>
      <trkpt lat="50.52635" lon="1.5798">
        <ele>2</ele>
        <time>2021-08-09T09:35:03.679Z</time>
      </trkpt>
      <trkpt lat="50.52631" lon="1.57985">
        <ele>2</ele>
        <time>2021-08-09T09:35:08.677Z</time>
      </trkpt>
      <trkpt lat="50.5263" lon="1.57994">
        <ele>3</ele>
        <time>2021-08-09T09:35:13.664Z</time>
      </trkpt>
      <trkpt lat="50.52629" lon="1.58002">
        <ele>3</ele>
        <time>2021-08-09T09:35:18.689Z</time>
      </trkpt>
      <trkpt lat="50.52629" lon="1.58011">
        <ele>3</ele>
        <time>2021-08-09T09:35:23.658Z</time>
      </trkpt>
      <trkpt lat="50.52628" lon="1.58017">
        <ele>4</ele>
        <time>2021-08-09T09:35:27.666Z</time>
      </trkpt>
      <trkpt lat="50.52626" lon="1.58023">
        <ele>4</ele>
        <time>2021-08-09T09:35:31.670Z</time>
      </trkpt>
      <trkpt lat="50.52625" lon="1.58029">
        <ele>4</ele>
        <time>2021-08-09T09:35:35.670Z</time>
      </trkpt>
      <trkpt lat="50.52623" lon="1.58036">
        <ele>5</ele>
        <time>2021-08-09T09:35:40.681Z</time>
      </trkpt>
      <trkpt lat="50.52619" lon="1.58042">
        <ele>5</ele>
        <time>2021-08-09T09:35:45.657Z</time>
      </trkpt>
      <trkpt lat="50.52618" lon="1.58051">
        <ele>5</ele>
        <time>2021-08-09T09:35:50.661Z</time>
      </trkpt>
      <trkpt lat="50.52616" lon="1.58059">
        <ele>5</ele>
        <time>2021-08-09T09:35:55.665Z</time>
      </trkpt>
      <trkpt lat="50.52615" lon="1.58069">
        <ele>5</ele>
        <time>2021-08-09T09:36:00.673Z</time>
      </trkpt>
      <trkpt lat="50.52613" lon="1.58078">
        <ele>6</ele>
        <time>2021-08-09T09:36:05.659Z</time>
      </trkpt>
      <trkpt lat="50.52612" lon="1.58085">
        <ele>6</ele>
        <time>2021-08-09T09:36:09.671Z</time>
      </trkpt>
      <trkpt lat="50.5261" lon="1.58093">
        <ele>6</ele>
        <time>2021-08-09T09:36:13.672Z</time>
      </trkpt>
      <trkpt lat="50.52608" lon="1.58101">
        <ele>6</ele>
        <time>2021-08-09T09:36:18.670Z</time>
      </trkpt>
      <trkpt lat="50.52606" lon="1.58106">
        <ele>6</ele>
        <time>2021-08-09T09:36:22.683Z</time>
      </trkpt>
      <trkpt lat="50.52601" lon="1.58112">
        <ele>6</ele>
        <time>2021-08-09T09:36:27.674Z</time>
      </trkpt>
      <trkpt lat="50.52598" lon="1.58119">
        <ele>6</ele>
        <time>2021-08-09T09:36:32.663Z</time>
      </trkpt>
      <trkpt lat="50.52599" lon="1.58125">
        <ele>6</ele>
        <time>2021-08-09T09:36:37.662Z</time>
      </trkpt>
      <trkpt lat="50.52603" lon="1.5813">
        <ele>7</ele>
        <time>2021-08-09T09:36:42.669Z</time>
      </trkpt>
      <trkpt lat="50.52608" lon="1.58129">
        <ele>7</ele>
        <time>2021-08-09T09:36:46.679Z</time>
      </trkpt>
      <trkpt lat="50.52614" lon="1.5813">
        <ele>7</ele>
        <time>2021-08-09T09:36:51.666Z</time>
      </trkpt>
      <trkpt lat="50.52619" lon="1.5813">
        <ele>7</ele>
        <time>2021-08-09T09:36:55.668Z</time>
      </trkpt>
      <trkpt lat="50.52625" lon="1.58132">
        <ele>6</ele>
        <time>2021-08-09T09:37:00.667Z</time>
      </trkpt>
      <trkpt lat="50.52632" lon="1.58133">
        <ele>6</ele>
        <time>2021-08-09T09:37:05.657Z</time>
      </trkpt>
      <trkpt lat="50.52636" lon="1.58137">
        <ele>6</ele>
        <time>2021-08-09T09:37:09.676Z</time>
      </trkpt>
      <trkpt lat="50.5264" lon="1.58149">
        <ele>6</ele>
        <time>2021-08-09T09:38:54.669Z</time>
      </trkpt>
      <trkpt lat="50.52639" lon="1.58138">
        <ele>6</ele>
        <time>2021-08-09T09:38:58.666Z</time>
      </trkpt>
      <trkpt lat="50.52633" lon="1.58136">
        <ele>6</ele>
        <time>2021-08-09T09:39:02.670Z</time>
      </trkpt>
      <trkpt lat="50.52627" lon="1.58137">
        <ele>6</ele>
        <time>2021-08-09T09:39:06.672Z</time>
      </trkpt>
      <trkpt lat="50.5262" lon="1.58135">
        <ele>7</ele>
        <time>2021-08-09T09:39:11.662Z</time>
      </trkpt>
      <trkpt lat="50.52613" lon="1.58132">
        <ele>7</ele>
        <time>2021-08-09T09:39:16.668Z</time>
      </trkpt>
      <trkpt lat="50.52605" lon="1.58135">
        <ele>7</ele>
        <time>2021-08-09T09:39:21.666Z</time>
      </trkpt>
      <trkpt lat="50.52601" lon="1.58141">
        <ele>7</ele>
        <time>2021-08-09T09:39:25.673Z</time>
      </trkpt>
      <trkpt lat="50.52596" lon="1.58147">
        <ele>7</ele>
        <time>2021-08-09T09:39:30.674Z</time>
      </trkpt>
      <trkpt lat="50.5259" lon="1.5815">
        <ele>7</ele>
        <time>2021-08-09T09:39:35.667Z</time>
      </trkpt>
      <trkpt lat="50.52585" lon="1.58146">
        <ele>7</ele>
        <time>2021-08-09T09:39:40.673Z</time>
      </trkpt>
      <trkpt lat="50.52588" lon="1.58139">
        <ele>7</ele>
        <time>2021-08-09T09:39:45.671Z</time>
      </trkpt>
      <trkpt lat="50.52585" lon="1.58139">
        <ele>7</ele>
        <time>2021-08-09T09:39:50.660Z</time>
      </trkpt>
      <trkpt lat="50.5258" lon="1.58139">
        <ele>7</ele>
        <time>2021-08-09T09:39:54.670Z</time>
      </trkpt>
      <trkpt lat="50.52575" lon="1.58139">
        <ele>7</ele>
        <time>2021-08-09T09:39:59.670Z</time>
      </trkpt>
      <trkpt lat="50.5257" lon="1.5814">
        <ele>7</ele>
        <time>2021-08-09T09:40:04.661Z</time>
      </trkpt>
      <trkpt lat="50.52566" lon="1.58142">
        <ele>8</ele>
        <time>2021-08-09T09:40:08.663Z</time>
      </trkpt>
      <trkpt lat="50.52561" lon="1.58146">
        <ele>8</ele>
        <time>2021-08-09T09:40:13.654Z</time>
      </trkpt>
      <trkpt lat="50.52558" lon="1.58151">
        <ele>8</ele>
        <time>2021-08-09T09:40:17.676Z</time>
      </trkpt>
      <trkpt lat="50.52553" lon="1.58155">
        <ele>8</ele>
        <time>2021-08-09T09:40:21.671Z</time>
      </trkpt>
      <trkpt lat="50.5255" lon="1.58158">
        <ele>8</ele>
        <time>2021-08-09T09:40:25.675Z</time>
      </trkpt>
      <trkpt lat="50.52544" lon="1.58162">
        <ele>8</ele>
        <time>2021-08-09T09:40:30.675Z</time>
      </trkpt>
      <trkpt lat="50.52539" lon="1.58168">
        <ele>7</ele>
        <time>2021-08-09T09:40:35.662Z</time>
      </trkpt>
      <trkpt lat="50.52532" lon="1.58175">
        <ele>7</ele>
        <time>2021-08-09T09:40:40.659Z</time>
      </trkpt>
      <trkpt lat="50.52526" lon="1.5818">
        <ele>7</ele>
        <time>2021-08-09T09:40:45.661Z</time>
      </trkpt>
      <trkpt lat="50.5252" lon="1.58185">
        <ele>9</ele>
        <time>2021-08-09T09:40:50.661Z</time>
      </trkpt>
      <trkpt lat="50.52516" lon="1.58191">
        <ele>9</ele>
        <time>2021-08-09T09:40:55.660Z</time>
      </trkpt>
      <trkpt lat="50.52512" lon="1.58197">
        <ele>10</ele>
        <time>2021-08-09T09:40:59.659Z</time>
      </trkpt>
      <trkpt lat="50.52508" lon="1.58201">
        <ele>10</ele>
        <time>2021-08-09T09:41:04.662Z</time>
      </trkpt>
      <trkpt lat="50.52507" lon="1.58201">
        <ele>10</ele>
        <time>2021-08-09T09:41:09.666Z</time>
      </trkpt>
      <trkpt lat="50.52506" lon="1.58203">
        <ele>10</ele>
        <time>2021-08-09T09:41:14.657Z</time>
      </trkpt>
      <trkpt lat="50.52505" lon="1.58205">
        <ele>10</ele>
        <time>2021-08-09T09:41:19.662Z</time>
      </trkpt>
      <trkpt lat="50.52498" lon="1.58207">
        <ele>10</ele>
        <time>2021-08-09T09:41:23.662Z</time>
      </trkpt>
      <trkpt lat="50.52493" lon="1.58206">
        <ele>10</ele>
        <time>2021-08-09T09:41:27.668Z</time>
      </trkpt>
      <trkpt lat="50.5249" lon="1.58209">
        <ele>11</ele>
        <time>2021-08-09T09:41:32.662Z</time>
      </trkpt>
      <trkpt lat="50.52486" lon="1.58217">
        <ele>13</ele>
        <time>2021-08-09T09:41:37.663Z</time>
      </trkpt>
      <trkpt lat="50.52482" lon="1.58223">
        <ele>13</ele>
        <time>2021-08-09T09:41:42.659Z</time>
      </trkpt>
      <trkpt lat="50.52482" lon="1.58228">
        <ele>13</ele>
        <time>2021-08-09T09:41:46.655Z</time>
      </trkpt>
      <trkpt lat="50.52482" lon="1.58232">
        <ele>13</ele>
        <time>2021-08-09T09:42:40.668Z</time>
      </trkpt>
      <trkpt lat="50.52482" lon="1.58229">
        <ele>13</ele>
        <time>2021-08-09T09:42:44.666Z</time>
      </trkpt>
      <trkpt lat="50.52484" lon="1.58222">
        <ele>13</ele>
        <time>2021-08-09T09:42:49.674Z</time>
      </trkpt>
      <trkpt lat="50.52479" lon="1.5822">
        <ele>13</ele>
        <time>2021-08-09T09:42:54.668Z</time>
      </trkpt>
      <trkpt lat="50.52476" lon="1.58216">
        <ele>13</ele>
        <time>2021-08-09T09:42:59.664Z</time>
      </trkpt>
      <trkpt lat="50.52473" lon="1.58229">
        <ele>13</ele>
        <time>2021-08-09T09:43:37.659Z</time>
      </trkpt>
      <trkpt lat="50.52471" lon="1.58231">
        <ele>13</ele>
        <time>2021-08-09T09:43:41.672Z</time>
      </trkpt>
      <trkpt lat="50.5247" lon="1.58238">
        <ele>13</ele>
        <time>2021-08-09T09:43:45.672Z</time>
      </trkpt>
      <trkpt lat="50.52466" lon="1.58239">
        <ele>13</ele>
        <time>2021-08-09T09:43:50.667Z</time>
      </trkpt>
      <trkpt lat="50.52471" lon="1.58247">
        <ele>13</ele>
        <time>2021-08-09T09:43:54.670Z</time>
      </trkpt>
      <trkpt lat="50.52481" lon="1.58225">
        <ele>13</ele>
        <time>2021-08-09T09:45:53.667Z</time>
      </trkpt>
      <trkpt lat="50.52481" lon="1.58225">
        <ele>13</ele>
        <time>2021-08-09T09:45:58.669Z</time>
      </trkpt>
      <trkpt lat="50.52481" lon="1.58224">
        <ele>13</ele>
        <time>2021-08-09T09:46:03.670Z</time>
      </trkpt>
      <trkpt lat="50.52478" lon="1.58216">
        <ele>13</ele>
        <time>2021-08-09T09:46:08.661Z</time>
      </trkpt>
      <trkpt lat="50.5248" lon="1.58211">
        <ele>13</ele>
        <time>2021-08-09T09:46:12.675Z</time>
      </trkpt>
      <trkpt lat="50.52482" lon="1.58209">
        <ele>13</ele>
        <time>2021-08-09T09:47:43.664Z</time>
      </trkpt>
      <trkpt lat="50.52482" lon="1.58211">
        <ele>13</ele>
        <time>2021-08-09T09:47:48.659Z</time>
      </trkpt>
      <trkpt lat="50.52478" lon="1.58215">
        <ele>13</ele>
        <time>2021-08-09T09:47:53.657Z</time>
      </trkpt>
      <trkpt lat="50.52476" lon="1.5822">
        <ele>13</ele>
        <time>2021-08-09T09:47:57.667Z</time>
      </trkpt>
      <trkpt lat="50.52479" lon="1.58226">
        <ele>13</ele>
        <time>2021-08-09T09:48:01.667Z</time>
      </trkpt>
      <trkpt lat="50.52483" lon="1.5823">
        <ele>13</ele>
        <time>2021-08-09T09:48:05.667Z</time>
      </trkpt>
      <trkpt lat="50.52484" lon="1.58234">
        <ele>13</ele>
        <time>2021-08-09T09:48:10.669Z</time>
      </trkpt>
      <trkpt lat="50.5248" lon="1.58232">
        <ele>13</ele>
        <time>2021-08-09T09:48:14.673Z</time>
      </trkpt>
      <trkpt lat="50.52474" lon="1.58231">
        <ele>13</ele>
        <time>2021-08-09T09:48:19.669Z</time>
      </trkpt>
      <trkpt lat="50.52472" lon="1.58231">
        <ele>13</ele>
        <time>2021-08-09T09:48:36.666Z</time>
      </trkpt>
      <trkpt lat="50.52472" lon="1.58231">
        <ele>13</ele>
        <time>2021-08-09T09:48:41.669Z</time>
      </trkpt>
      <trkpt lat="50.52472" lon="1.58232">
        <ele>13</ele>
        <time>2021-08-09T09:48:45.667Z</time>
      </trkpt>
      <trkpt lat="50.52467" lon="1.58233">
        <ele>13</ele>
        <time>2021-08-09T09:48:50.678Z</time>
      </trkpt>
      <trkpt lat="50.52459" lon="1.58241">
        <ele>13</ele>
        <time>2021-08-09T09:48:55.669Z</time>
      </trkpt>
      <trkpt lat="50.52465" lon="1.5824">
        <ele>13</ele>
        <time>2021-08-09T09:50:12.668Z</time>
      </trkpt>
      <trkpt lat="50.52465" lon="1.5824">
        <ele>13</ele>
        <time>2021-08-09T09:50:17.672Z</time>
      </trkpt>
      <trkpt lat="50.52465" lon="1.5824">
        <ele>13</ele>
        <time>2021-08-09T09:50:21.670Z</time>
      </trkpt>
      <trkpt lat="50.52465" lon="1.5824">
        <ele>13</ele>
        <time>2021-08-09T09:50:25.671Z</time>
      </trkpt>
      <trkpt lat="50.52467" lon="1.58238">
        <ele>13</ele>
        <time>2021-08-09T09:50:30.660Z</time>
      </trkpt>
      <trkpt lat="50.52468" lon="1.58238">
        <ele>13</ele>
        <time>2021-08-09T09:51:25.662Z</time>
      </trkpt>
      <trkpt lat="50.52468" lon="1.58242">
        <ele>13</ele>
        <time>2021-08-09T09:51:30.667Z</time>
      </trkpt>
      <trkpt lat="50.52469" lon="1.58241">
        <ele>13</ele>
        <time>2021-08-09T09:51:34.671Z</time>
      </trkpt>
      <trkpt lat="50.52473" lon="1.58236">
        <ele>13</ele>
        <time>2021-08-09T09:51:38.687Z</time>
      </trkpt>
      <trkpt lat="50.52476" lon="1.58223">
        <ele>13</ele>
        <time>2021-08-09T09:51:43.659Z</time>
      </trkpt>
      <trkpt lat="50.52478" lon="1.58237">
        <ele>13</ele>
        <time>2021-08-09T09:53:08.668Z</time>
      </trkpt>
      <trkpt lat="50.52476" lon="1.58244">
        <ele>13</ele>
        <time>2021-08-09T09:53:13.667Z</time>
      </trkpt>
      <trkpt lat="50.52476" lon="1.58246">
        <ele>13</ele>
        <time>2021-08-09T09:53:17.671Z</time>
      </trkpt>
      <trkpt lat="50.52475" lon="1.58251">
        <ele>13</ele>
        <time>2021-08-09T09:53:21.677Z</time>
      </trkpt>
      <trkpt lat="50.52476" lon="1.58253">
        <ele>13</ele>
        <time>2021-08-09T09:53:26.666Z</time>
      </trkpt>
      <trkpt lat="50.52479" lon="1.58247">
        <ele>13</ele>
        <time>2021-08-09T09:53:30.672Z</time>
      </trkpt>
      <trkpt lat="50.52483" lon="1.58235">
        <ele>13</ele>
        <time>2021-08-09T09:53:35.676Z</time>
      </trkpt>
      <trkpt lat="50.52485" lon="1.58226">
        <ele>13</ele>
        <time>2021-08-09T09:53:40.674Z</time>
      </trkpt>
      <trkpt lat="50.52481" lon="1.5822">
        <ele>13</ele>
        <time>2021-08-09T09:53:45.672Z</time>
      </trkpt>
      <trkpt lat="50.52475" lon="1.58216">
        <ele>13</ele>
        <time>2021-08-09T09:53:50.669Z</time>
      </trkpt>
      <trkpt lat="50.52471" lon="1.58211">
        <ele>13</ele>
        <time>2021-08-09T09:53:54.672Z</time>
      </trkpt>
      <trkpt lat="50.52466" lon="1.58208">
        <ele>11</ele>
        <time>2021-08-09T09:53:59.673Z</time>
      </trkpt>
      <trkpt lat="50.52461" lon="1.58203">
        <ele>11</ele>
        <time>2021-08-09T09:54:04.668Z</time>
      </trkpt>
      <trkpt lat="50.52455" lon="1.58199">
        <ele>13</ele>
        <time>2021-08-09T09:54:09.666Z</time>
      </trkpt>
      <trkpt lat="50.52451" lon="1.58193">
        <ele>13</ele>
        <time>2021-08-09T09:54:14.677Z</time>
      </trkpt>
      <trkpt lat="50.52452" lon="1.5819">
        <ele>13</ele>
        <time>2021-08-09T09:54:19.675Z</time>
      </trkpt>
      <trkpt lat="50.52448" lon="1.58191">
        <ele>13</ele>
        <time>2021-08-09T09:54:24.669Z</time>
      </trkpt>
      <trkpt lat="50.52443" lon="1.58187">
        <ele>13</ele>
        <time>2021-08-09T09:54:29.665Z</time>
      </trkpt>
      <trkpt lat="50.52438" lon="1.58184">
        <ele>13</ele>
        <time>2021-08-09T09:54:34.669Z</time>
      </trkpt>
      <trkpt lat="50.52431" lon="1.58179">
        <ele>13</ele>
        <time>2021-08-09T09:54:39.666Z</time>
      </trkpt>
      <trkpt lat="50.52425" lon="1.58177">
        <ele>14</ele>
        <time>2021-08-09T09:54:44.665Z</time>
      </trkpt>
      <trkpt lat="50.52421" lon="1.58175">
        <ele>14</ele>
        <time>2021-08-09T09:54:48.684Z</time>
      </trkpt>
      <trkpt lat="50.52416" lon="1.5817">
        <ele>14</ele>
        <time>2021-08-09T09:54:53.679Z</time>
      </trkpt>
      <trkpt lat="50.52411" lon="1.58165">
        <ele>14</ele>
        <time>2021-08-09T09:54:58.676Z</time>
      </trkpt>
      <trkpt lat="50.52412" lon="1.58157">
        <ele>14</ele>
        <time>2021-08-09T09:55:03.673Z</time>
      </trkpt>
      <trkpt lat="50.52413" lon="1.58147">
        <ele>11</ele>
        <time>2021-08-09T09:55:08.661Z</time>
      </trkpt>
      <trkpt lat="50.52415" lon="1.58135">
        <ele>11</ele>
        <time>2021-08-09T09:55:13.672Z</time>
      </trkpt>
      <trkpt lat="50.52418" lon="1.58123">
        <ele>9</ele>
        <time>2021-08-09T09:55:18.665Z</time>
      </trkpt>
      <trkpt lat="50.52421" lon="1.58115">
        <ele>9</ele>
        <time>2021-08-09T09:55:22.672Z</time>
      </trkpt>
      <trkpt lat="50.52423" lon="1.58106">
        <ele>9</ele>
        <time>2021-08-09T09:55:26.681Z</time>
      </trkpt>
      <trkpt lat="50.52426" lon="1.58097">
        <ele>7</ele>
        <time>2021-08-09T09:55:31.666Z</time>
      </trkpt>
      <trkpt lat="50.52427" lon="1.58089">
        <ele>7</ele>
        <time>2021-08-09T09:55:35.670Z</time>
      </trkpt>
      <trkpt lat="50.52424" lon="1.5808">
        <ele>7</ele>
        <time>2021-08-09T09:55:40.662Z</time>
      </trkpt>
      <trkpt lat="50.5242" lon="1.58075">
        <ele>7</ele>
        <time>2021-08-09T09:55:44.670Z</time>
      </trkpt>
      <trkpt lat="50.52415" lon="1.58071">
        <ele>7</ele>
        <time>2021-08-09T09:55:49.669Z</time>
      </trkpt>
      <trkpt lat="50.52408" lon="1.58066">
        <ele>6</ele>
        <time>2021-08-09T09:55:54.680Z</time>
      </trkpt>
      <trkpt lat="50.52401" lon="1.58062">
        <ele>6</ele>
        <time>2021-08-09T09:55:59.663Z</time>
      </trkpt>
      <trkpt lat="50.52395" lon="1.5806">
        <ele>6</ele>
        <time>2021-08-09T09:56:04.672Z</time>
      </trkpt>
      <trkpt lat="50.52389" lon="1.58057">
        <ele>6</ele>
        <time>2021-08-09T09:56:09.661Z</time>
      </trkpt>
      <trkpt lat="50.52382" lon="1.58055">
        <ele>6</ele>
        <time>2021-08-09T09:56:14.664Z</time>
      </trkpt>
      <trkpt lat="50.52377" lon="1.58053">
        <ele>6</ele>
        <time>2021-08-09T09:56:18.670Z</time>
      </trkpt>
      <trkpt lat="50.52371" lon="1.5805">
        <ele>9</ele>
        <time>2021-08-09T09:56:23.670Z</time>
      </trkpt>
      <trkpt lat="50.52364" lon="1.58048">
        <ele>9</ele>
        <time>2021-08-09T09:56:28.670Z</time>
      </trkpt>
      <trkpt lat="50.52358" lon="1.58046">
        <ele>9</ele>
        <time>2021-08-09T09:56:33.671Z</time>
      </trkpt>
      <trkpt lat="50.5235" lon="1.58044">
        <ele>9</ele>
        <time>2021-08-09T09:56:38.675Z</time>
      </trkpt>
      <trkpt lat="50.52346" lon="1.58037">
        <ele>7</ele>
        <time>2021-08-09T09:56:43.674Z</time>
      </trkpt>
      <trkpt lat="50.52347" lon="1.58028">
        <ele>7</ele>
        <time>2021-08-09T09:56:48.673Z</time>
      </trkpt>
      <trkpt lat="50.52348" lon="1.58015">
        <ele>6</ele>
        <time>2021-08-09T09:56:53.672Z</time>
      </trkpt>
      <trkpt lat="50.52349" lon="1.58003">
        <ele>6</ele>
        <time>2021-08-09T09:56:58.672Z</time>
      </trkpt>
      <trkpt lat="50.52351" lon="1.57992">
        <ele>6</ele>
        <time>2021-08-09T09:57:03.678Z</time>
      </trkpt>
      <trkpt lat="50.52353" lon="1.57982">
        <ele>4</ele>
        <time>2021-08-09T09:57:08.676Z</time>
      </trkpt>
      <trkpt lat="50.52354" lon="1.57972">
        <ele>4</ele>
        <time>2021-08-09T09:57:13.664Z</time>
      </trkpt>
      <trkpt lat="50.52355" lon="1.57962">
        <ele>4</ele>
        <time>2021-08-09T09:57:18.670Z</time>
      </trkpt>
      <trkpt lat="50.52356" lon="1.57953">
        <ele>6</ele>
        <time>2021-08-09T09:57:22.668Z</time>
      </trkpt>
      <trkpt lat="50.52355" lon="1.57943">
        <ele>6</ele>
        <time>2021-08-09T09:57:27.681Z</time>
      </trkpt>
      <trkpt lat="50.52349" lon="1.57937">
        <ele>6</ele>
        <time>2021-08-09T09:57:32.663Z</time>
      </trkpt>
      <trkpt lat="50.52343" lon="1.57933">
        <ele>6</ele>
        <time>2021-08-09T09:57:37.658Z</time>
      </trkpt>
      <trkpt lat="50.52336" lon="1.57929">
        <ele>4</ele>
        <time>2021-08-09T09:57:42.690Z</time>
      </trkpt>
      <trkpt lat="50.5233" lon="1.57927">
        <ele>4</ele>
        <time>2021-08-09T09:57:47.664Z</time>
      </trkpt>
      <trkpt lat="50.52325" lon="1.57925">
        <ele>4</ele>
        <time>2021-08-09T09:57:51.664Z</time>
      </trkpt>
      <trkpt lat="50.5232" lon="1.57924">
        <ele>4</ele>
        <time>2021-08-09T09:57:55.688Z</time>
      </trkpt>
      <trkpt lat="50.52314" lon="1.57921">
        <ele>5</ele>
        <time>2021-08-09T09:58:00.701Z</time>
      </trkpt>
      <trkpt lat="50.52309" lon="1.57919">
        <ele>5</ele>
        <time>2021-08-09T09:58:04.707Z</time>
      </trkpt>
      <trkpt lat="50.52302" lon="1.57916">
        <ele>5</ele>
        <time>2021-08-09T09:58:09.697Z</time>
      </trkpt>
      <trkpt lat="50.52297" lon="1.57915">
        <ele>5</ele>
        <time>2021-08-09T09:58:13.703Z</time>
      </trkpt>
      <trkpt lat="50.52289" lon="1.57915">
        <ele>5</ele>
        <time>2021-08-09T09:58:18.695Z</time>
      </trkpt>
      <trkpt lat="50.52282" lon="1.57916">
        <ele>5</ele>
        <time>2021-08-09T09:58:23.696Z</time>
      </trkpt>
      <trkpt lat="50.52277" lon="1.57913">
        <ele>5</ele>
        <time>2021-08-09T09:58:27.699Z</time>
      </trkpt>
      <trkpt lat="50.5227" lon="1.57912">
        <ele>5</ele>
        <time>2021-08-09T09:58:32.697Z</time>
      </trkpt>
      <trkpt lat="50.52265" lon="1.57909">
        <ele>5</ele>
        <time>2021-08-09T09:58:37.698Z</time>
      </trkpt>
      <trkpt lat="50.52259" lon="1.57906">
        <ele>6</ele>
        <time>2021-08-09T09:58:42.672Z</time>
      </trkpt>
      <trkpt lat="50.52253" lon="1.57905">
        <ele>6</ele>
        <time>2021-08-09T09:58:46.682Z</time>
      </trkpt>
      <trkpt lat="50.52247" lon="1.57902">
        <ele>5</ele>
        <time>2021-08-09T09:58:51.705Z</time>
      </trkpt>
      <trkpt lat="50.52242" lon="1.579">
        <ele>5</ele>
        <time>2021-08-09T09:58:55.687Z</time>
      </trkpt>
      <trkpt lat="50.52235" lon="1.57898">
        <ele>6</ele>
        <time>2021-08-09T09:59:00.685Z</time>
      </trkpt>
      <trkpt lat="50.52229" lon="1.57896">
        <ele>6</ele>
        <time>2021-08-09T09:59:04.703Z</time>
      </trkpt>
      <trkpt lat="50.52222" lon="1.57894">
        <ele>6</ele>
        <time>2021-08-09T09:59:09.687Z</time>
      </trkpt>
      <trkpt lat="50.52216" lon="1.57892">
        <ele>6</ele>
        <time>2021-08-09T09:59:13.693Z</time>
      </trkpt>
      <trkpt lat="50.5221" lon="1.57892">
        <ele>6</ele>
        <time>2021-08-09T09:59:17.692Z</time>
      </trkpt>
      <trkpt lat="50.52203" lon="1.57892">
        <ele>6</ele>
        <time>2021-08-09T09:59:22.683Z</time>
      </trkpt>
      <trkpt lat="50.52196" lon="1.57891">
        <ele>6</ele>
        <time>2021-08-09T09:59:27.683Z</time>
      </trkpt>
      <trkpt lat="50.52189" lon="1.57889">
        <ele>6</ele>
        <time>2021-08-09T09:59:32.680Z</time>
      </trkpt>
      <trkpt lat="50.52183" lon="1.57888">
        <ele>6</ele>
        <time>2021-08-09T09:59:36.682Z</time>
      </trkpt>
      <trkpt lat="50.52176" lon="1.57886">
        <ele>6</ele>
        <time>2021-08-09T09:59:41.688Z</time>
      </trkpt>
      <trkpt lat="50.52171" lon="1.57885">
        <ele>6</ele>
        <time>2021-08-09T09:59:45.685Z</time>
      </trkpt>
      <trkpt lat="50.52163" lon="1.57885">
        <ele>6</ele>
        <time>2021-08-09T09:59:50.676Z</time>
      </trkpt>
      <trkpt lat="50.52158" lon="1.57884">
        <ele>6</ele>
        <time>2021-08-09T09:59:54.701Z</time>
      </trkpt>
      <trkpt lat="50.52151" lon="1.57883">
        <ele>9</ele>
        <time>2021-08-09T09:59:59.689Z</time>
      </trkpt>
      <trkpt lat="50.52145" lon="1.57882">
        <ele>9</ele>
        <time>2021-08-09T10:00:03.699Z</time>
      </trkpt>
      <trkpt lat="50.52139" lon="1.57881">
        <ele>9</ele>
        <time>2021-08-09T10:00:07.700Z</time>
      </trkpt>
      <trkpt lat="50.52132" lon="1.57879">
        <ele>9</ele>
        <time>2021-08-09T10:00:12.681Z</time>
      </trkpt>
      <trkpt lat="50.52127" lon="1.57879">
        <ele>9</ele>
        <time>2021-08-09T10:00:16.700Z</time>
      </trkpt>
      <trkpt lat="50.5212" lon="1.57878">
        <ele>8</ele>
        <time>2021-08-09T10:00:21.687Z</time>
      </trkpt>
      <trkpt lat="50.52115" lon="1.57876">
        <ele>8</ele>
        <time>2021-08-09T10:00:25.701Z</time>
      </trkpt>
      <trkpt lat="50.52108" lon="1.57874">
        <ele>3</ele>
        <time>2021-08-09T10:00:30.688Z</time>
      </trkpt>
      <trkpt lat="50.52102" lon="1.57874">
        <ele>3</ele>
        <time>2021-08-09T10:00:34.697Z</time>
      </trkpt>
      <trkpt lat="50.52097" lon="1.57872">
        <ele>4</ele>
        <time>2021-08-09T10:00:39.702Z</time>
      </trkpt>
      <trkpt lat="50.5209" lon="1.5787">
        <ele>4</ele>
        <time>2021-08-09T10:00:44.703Z</time>
      </trkpt>
      <trkpt lat="50.52083" lon="1.57869">
        <ele>4</ele>
        <time>2021-08-09T10:00:49.689Z</time>
      </trkpt>
      <trkpt lat="50.52077" lon="1.57869">
        <ele>4</ele>
        <time>2021-08-09T10:00:53.693Z</time>
      </trkpt>
      <trkpt lat="50.5207" lon="1.57869">
        <ele>4</ele>
        <time>2021-08-09T10:00:58.702Z</time>
      </trkpt>
      <trkpt lat="50.52064" lon="1.57868">
        <ele>4</ele>
        <time>2021-08-09T10:01:03.689Z</time>
      </trkpt>
      <trkpt lat="50.52061" lon="1.57866">
        <ele>4</ele>
        <time>2021-08-09T10:01:07.701Z</time>
      </trkpt>
      <trkpt lat="50.52055" lon="1.57863">
        <ele>4</ele>
        <time>2021-08-09T10:01:12.682Z</time>
      </trkpt>
      <trkpt lat="50.52048" lon="1.57863">
        <ele>4</ele>
        <time>2021-08-09T10:01:17.679Z</time>
      </trkpt>
      <trkpt lat="50.52042" lon="1.57863">
        <ele>4</ele>
        <time>2021-08-09T10:01:21.694Z</time>
      </trkpt>
      <trkpt lat="50.52036" lon="1.57862">
        <ele>4</ele>
        <time>2021-08-09T10:01:25.694Z</time>
      </trkpt>
      <trkpt lat="50.5203" lon="1.5786">
        <ele>4</ele>
        <time>2021-08-09T10:01:30.701Z</time>
      </trkpt>
      <trkpt lat="50.52023" lon="1.57859">
        <ele>4</ele>
        <time>2021-08-09T10:01:35.686Z</time>
      </trkpt>
      <trkpt lat="50.52016" lon="1.57857">
        <ele>4</ele>
        <time>2021-08-09T10:01:40.677Z</time>
      </trkpt>
      <trkpt lat="50.52011" lon="1.57857">
        <ele>4</ele>
        <time>2021-08-09T10:01:44.686Z</time>
      </trkpt>
      <trkpt lat="50.52004" lon="1.57859">
        <ele>4</ele>
        <time>2021-08-09T10:01:49.691Z</time>
      </trkpt>
      <trkpt lat="50.51999" lon="1.57858">
        <ele>4</ele>
        <time>2021-08-09T10:01:53.697Z</time>
      </trkpt>
      <trkpt lat="50.51993" lon="1.57855">
        <ele>4</ele>
        <time>2021-08-09T10:01:58.702Z</time>
      </trkpt>
      <trkpt lat="50.51986" lon="1.57855">
        <ele>4</ele>
        <time>2021-08-09T10:02:03.688Z</time>
      </trkpt>
      <trkpt lat="50.51979" lon="1.57853">
        <ele>4</ele>
        <time>2021-08-09T10:02:08.687Z</time>
      </trkpt>
      <trkpt lat="50.51972" lon="1.57851">
        <ele>4</ele>
        <time>2021-08-09T10:02:13.690Z</time>
      </trkpt>
      <trkpt lat="50.51967" lon="1.57848">
        <ele>4</ele>
        <time>2021-08-09T10:02:18.695Z</time>
      </trkpt>
      <trkpt lat="50.51961" lon="1.57846">
        <ele>5</ele>
        <time>2021-08-09T10:02:23.706Z</time>
      </trkpt>
      <trkpt lat="50.51955" lon="1.57848">
        <ele>4</ele>
        <time>2021-08-09T10:02:28.704Z</time>
      </trkpt>
      <trkpt lat="50.51948" lon="1.57848">
        <ele>4</ele>
        <time>2021-08-09T10:02:33.677Z</time>
      </trkpt>
      <trkpt lat="50.51943" lon="1.57846">
        <ele>4</ele>
        <time>2021-08-09T10:02:37.682Z</time>
      </trkpt>
      <trkpt lat="50.51938" lon="1.57844">
        <ele>4</ele>
        <time>2021-08-09T10:02:41.702Z</time>
      </trkpt>
      <trkpt lat="50.51933" lon="1.57842">
        <ele>4</ele>
        <time>2021-08-09T10:02:45.683Z</time>
      </trkpt>
      <trkpt lat="50.51926" lon="1.5784">
        <ele>4</ele>
        <time>2021-08-09T10:02:50.680Z</time>
      </trkpt>
      <trkpt lat="50.5192" lon="1.57838">
        <ele>4</ele>
        <time>2021-08-09T10:02:55.668Z</time>
      </trkpt>
      <trkpt lat="50.51914" lon="1.57836">
        <ele>4</ele>
        <time>2021-08-09T10:03:00.676Z</time>
      </trkpt>
      <trkpt lat="50.51909" lon="1.57836">
        <ele>4</ele>
        <time>2021-08-09T10:03:04.679Z</time>
      </trkpt>
      <trkpt lat="50.51901" lon="1.57836">
        <ele>4</ele>
        <time>2021-08-09T10:03:09.682Z</time>
      </trkpt>
      <trkpt lat="50.51896" lon="1.57834">
        <ele>4</ele>
        <time>2021-08-09T10:03:13.682Z</time>
      </trkpt>
      <trkpt lat="50.51889" lon="1.57832">
        <ele>4</ele>
        <time>2021-08-09T10:03:18.685Z</time>
      </trkpt>
      <trkpt lat="50.51882" lon="1.57831">
        <ele>4</ele>
        <time>2021-08-09T10:03:23.684Z</time>
      </trkpt>
      <trkpt lat="50.51875" lon="1.5783">
        <ele>4</ele>
        <time>2021-08-09T10:03:28.682Z</time>
      </trkpt>
      <trkpt lat="50.51869" lon="1.57829">
        <ele>4</ele>
        <time>2021-08-09T10:03:32.684Z</time>
      </trkpt>
      <trkpt lat="50.51863" lon="1.57828">
        <ele>4</ele>
        <time>2021-08-09T10:03:37.671Z</time>
      </trkpt>
      <trkpt lat="50.51857" lon="1.57827">
        <ele>4</ele>
        <time>2021-08-09T10:03:41.681Z</time>
      </trkpt>
      <trkpt lat="50.51851" lon="1.57826">
        <ele>4</ele>
        <time>2021-08-09T10:03:45.673Z</time>
      </trkpt>
      <trkpt lat="50.51844" lon="1.57825">
        <ele>4</ele>
        <time>2021-08-09T10:03:50.680Z</time>
      </trkpt>
      <trkpt lat="50.51838" lon="1.57824">
        <ele>4</ele>
        <time>2021-08-09T10:03:54.682Z</time>
      </trkpt>
      <trkpt lat="50.51831" lon="1.57823">
        <ele>4</ele>
        <time>2021-08-09T10:03:59.686Z</time>
      </trkpt>
      <trkpt lat="50.51825" lon="1.57821">
        <ele>4</ele>
        <time>2021-08-09T10:04:04.678Z</time>
      </trkpt>
      <trkpt lat="50.51819" lon="1.5782">
        <ele>4</ele>
        <time>2021-08-09T10:04:08.688Z</time>
      </trkpt>
      <trkpt lat="50.51812" lon="1.57819">
        <ele>2</ele>
        <time>2021-08-09T10:04:13.684Z</time>
      </trkpt>
      <trkpt lat="50.51807" lon="1.57818">
        <ele>2</ele>
        <time>2021-08-09T10:04:17.683Z</time>
      </trkpt>
      <trkpt lat="50.518" lon="1.57816">
        <ele>2</ele>
        <time>2021-08-09T10:04:22.679Z</time>
      </trkpt>
      <trkpt lat="50.51794" lon="1.57816">
        <ele>2</ele>
        <time>2021-08-09T10:04:26.681Z</time>
      </trkpt>
      <trkpt lat="50.51787" lon="1.57815">
        <ele>2</ele>
        <time>2021-08-09T10:04:31.670Z</time>
      </trkpt>
      <trkpt lat="50.51781" lon="1.57813">
        <ele>2</ele>
        <time>2021-08-09T10:04:35.689Z</time>
      </trkpt>
      <trkpt lat="50.51774" lon="1.57813">
        <ele>2</ele>
        <time>2021-08-09T10:04:40.684Z</time>
      </trkpt>
      <trkpt lat="50.51766" lon="1.57813">
        <ele>2</ele>
        <time>2021-08-09T10:04:45.678Z</time>
      </trkpt>
      <trkpt lat="50.51759" lon="1.57813">
        <ele>3</ele>
        <time>2021-08-09T10:04:50.686Z</time>
      </trkpt>
      <trkpt lat="50.51752" lon="1.57812">
        <ele>3</ele>
        <time>2021-08-09T10:04:55.678Z</time>
      </trkpt>
      <trkpt lat="50.51746" lon="1.5781">
        <ele>3</ele>
        <time>2021-08-09T10:05:00.683Z</time>
      </trkpt>
      <trkpt lat="50.5174" lon="1.5781">
        <ele>3</ele>
        <time>2021-08-09T10:05:04.695Z</time>
      </trkpt>
      <trkpt lat="50.51734" lon="1.5781">
        <ele>4</ele>
        <time>2021-08-09T10:05:08.699Z</time>
      </trkpt>
      <trkpt lat="50.51727" lon="1.57805">
        <ele>4</ele>
        <time>2021-08-09T10:05:13.696Z</time>
      </trkpt>
      <trkpt lat="50.5172" lon="1.57803">
        <ele>4</ele>
        <time>2021-08-09T10:05:18.672Z</time>
      </trkpt>
      <trkpt lat="50.51715" lon="1.57802">
        <ele>4</ele>
        <time>2021-08-09T10:05:22.676Z</time>
      </trkpt>
      <trkpt lat="50.51708" lon="1.57802">
        <ele>5</ele>
        <time>2021-08-09T10:05:27.682Z</time>
      </trkpt>
      <trkpt lat="50.51701" lon="1.578">
        <ele>5</ele>
        <time>2021-08-09T10:05:32.684Z</time>
      </trkpt>
      <trkpt lat="50.51695" lon="1.57799">
        <ele>5</ele>
        <time>2021-08-09T10:05:36.682Z</time>
      </trkpt>
      <trkpt lat="50.51688" lon="1.57798">
        <ele>5</ele>
        <time>2021-08-09T10:05:41.682Z</time>
      </trkpt>
      <trkpt lat="50.51682" lon="1.57796">
        <ele>5</ele>
        <time>2021-08-09T10:05:45.682Z</time>
      </trkpt>
      <trkpt lat="50.51676" lon="1.57796">
        <ele>6</ele>
        <time>2021-08-09T10:05:50.682Z</time>
      </trkpt>
      <trkpt lat="50.51668" lon="1.57795">
        <ele>6</ele>
        <time>2021-08-09T10:05:55.679Z</time>
      </trkpt>
      <trkpt lat="50.51661" lon="1.57796">
        <ele>6</ele>
        <time>2021-08-09T10:06:00.682Z</time>
      </trkpt>
      <trkpt lat="50.51654" lon="1.57802">
        <ele>6</ele>
        <time>2021-08-09T10:06:05.674Z</time>
      </trkpt>
      <trkpt lat="50.5165" lon="1.57808">
        <ele>7</ele>
        <time>2021-08-09T10:06:09.684Z</time>
      </trkpt>
      <trkpt lat="50.51645" lon="1.57817">
        <ele>7</ele>
        <time>2021-08-09T10:06:14.690Z</time>
      </trkpt>
      <trkpt lat="50.51641" lon="1.57827">
        <ele>8</ele>
        <time>2021-08-09T10:06:19.692Z</time>
      </trkpt>
      <trkpt lat="50.51638" lon="1.57839">
        <ele>8</ele>
        <time>2021-08-09T10:06:24.682Z</time>
      </trkpt>
      <trkpt lat="50.51637" lon="1.57848">
        <ele>10</ele>
        <time>2021-08-09T10:06:28.684Z</time>
      </trkpt>
      <trkpt lat="50.51637" lon="1.57861">
        <ele>10</ele>
        <time>2021-08-09T10:06:33.681Z</time>
      </trkpt>
      <trkpt lat="50.51635" lon="1.57872">
        <ele>10</ele>
        <time>2021-08-09T10:06:38.701Z</time>
      </trkpt>
      <trkpt lat="50.51632" lon="1.57882">
        <ele>10</ele>
        <time>2021-08-09T10:06:43.679Z</time>
      </trkpt>
      <trkpt lat="50.51627" lon="1.57889">
        <ele>10</ele>
        <time>2021-08-09T10:06:47.689Z</time>
      </trkpt>
      <trkpt lat="50.51621" lon="1.57888">
        <ele>12</ele>
        <time>2021-08-09T10:06:52.681Z</time>
      </trkpt>
      <trkpt lat="50.51614" lon="1.57888">
        <ele>12</ele>
        <time>2021-08-09T10:06:57.676Z</time>
      </trkpt>
      <trkpt lat="50.51609" lon="1.57888">
        <ele>12</ele>
        <time>2021-08-09T10:07:01.683Z</time>
      </trkpt>
      <trkpt lat="50.51604" lon="1.57887">
        <ele>12</ele>
        <time>2021-08-09T10:07:05.686Z</time>
      </trkpt>
      <trkpt lat="50.51597" lon="1.57885">
        <ele>12</ele>
        <time>2021-08-09T10:07:10.680Z</time>
      </trkpt>
      <trkpt lat="50.51592" lon="1.57884">
        <ele>16</ele>
        <time>2021-08-09T10:07:14.689Z</time>
      </trkpt>
      <trkpt lat="50.51586" lon="1.57882">
        <ele>16</ele>
        <time>2021-08-09T10:07:19.691Z</time>
      </trkpt>
      <trkpt lat="50.51584" lon="1.57881">
        <ele>16</ele>
        <time>2021-08-09T10:07:24.687Z</time>
      </trkpt>
      <trkpt lat="50.51578" lon="1.57872">
        <ele>13</ele>
        <time>2021-08-09T10:07:29.685Z</time>
      </trkpt>
      <trkpt lat="50.51575" lon="1.57861">
        <ele>13</ele>
        <time>2021-08-09T10:07:34.684Z</time>
      </trkpt>
      <trkpt lat="50.51568" lon="1.57855">
        <ele>14</ele>
        <time>2021-08-09T10:07:39.684Z</time>
      </trkpt>
      <trkpt lat="50.5156" lon="1.5785">
        <ele>14</ele>
        <time>2021-08-09T10:07:44.681Z</time>
      </trkpt>
      <trkpt lat="50.51552" lon="1.57846">
        <ele>12</ele>
        <time>2021-08-09T10:07:49.704Z</time>
      </trkpt>
      <trkpt lat="50.51546" lon="1.5784">
        <ele>12</ele>
        <time>2021-08-09T10:07:54.686Z</time>
      </trkpt>
      <trkpt lat="50.51539" lon="1.57842">
        <ele>12</ele>
        <time>2021-08-09T10:07:59.674Z</time>
      </trkpt>
      <trkpt lat="50.51532" lon="1.57839">
        <ele>12</ele>
        <time>2021-08-09T10:08:04.691Z</time>
      </trkpt>
      <trkpt lat="50.51526" lon="1.57837">
        <ele>12</ele>
        <time>2021-08-09T10:08:09.691Z</time>
      </trkpt>
      <trkpt lat="50.51519" lon="1.57835">
        <ele>12</ele>
        <time>2021-08-09T10:08:14.690Z</time>
      </trkpt>
      <trkpt lat="50.51512" lon="1.57834">
        <ele>13</ele>
        <time>2021-08-09T10:08:19.672Z</time>
      </trkpt>
      <trkpt lat="50.51506" lon="1.57835">
        <ele>13</ele>
        <time>2021-08-09T10:08:24.682Z</time>
      </trkpt>
      <trkpt lat="50.51499" lon="1.57835">
        <ele>13</ele>
        <time>2021-08-09T10:08:29.688Z</time>
      </trkpt>
      <trkpt lat="50.51492" lon="1.57833">
        <ele>13</ele>
        <time>2021-08-09T10:08:34.680Z</time>
      </trkpt>
      <trkpt lat="50.51487" lon="1.57827">
        <ele>13</ele>
        <time>2021-08-09T10:08:38.704Z</time>
      </trkpt>
      <trkpt lat="50.51481" lon="1.57831">
        <ele>15</ele>
        <time>2021-08-09T10:08:43.679Z</time>
      </trkpt>
      <trkpt lat="50.51476" lon="1.57829">
        <ele>15</ele>
        <time>2021-08-09T10:08:47.678Z</time>
      </trkpt>
      <trkpt lat="50.51471" lon="1.57828">
        <ele>15</ele>
        <time>2021-08-09T10:08:51.680Z</time>
      </trkpt>
      <trkpt lat="50.51465" lon="1.57826">
        <ele>15</ele>
        <time>2021-08-09T10:08:55.699Z</time>
      </trkpt>
      <trkpt lat="50.51458" lon="1.57826">
        <ele>15</ele>
        <time>2021-08-09T10:09:00.687Z</time>
      </trkpt>
      <trkpt lat="50.51453" lon="1.57827">
        <ele>15</ele>
        <time>2021-08-09T10:09:04.685Z</time>
      </trkpt>
      <trkpt lat="50.51448" lon="1.57822">
        <ele>15</ele>
        <time>2021-08-09T10:09:09.682Z</time>
      </trkpt>
      <trkpt lat="50.51441" lon="1.57821">
        <ele>15</ele>
        <time>2021-08-09T10:09:13.691Z</time>
      </trkpt>
      <trkpt lat="50.51435" lon="1.5782">
        <ele>15</ele>
        <time>2021-08-09T10:09:18.684Z</time>
      </trkpt>
      <trkpt lat="50.51429" lon="1.57819">
        <ele>13</ele>
        <time>2021-08-09T10:09:22.688Z</time>
      </trkpt>
      <trkpt lat="50.51422" lon="1.57818">
        <ele>13</ele>
        <time>2021-08-09T10:09:27.670Z</time>
      </trkpt>
      <trkpt lat="50.51419" lon="1.57812">
        <ele>13</ele>
        <time>2021-08-09T10:09:32.680Z</time>
      </trkpt>
      <trkpt lat="50.51415" lon="1.57805">
        <ele>13</ele>
        <time>2021-08-09T10:09:37.669Z</time>
      </trkpt>
      <trkpt lat="50.51412" lon="1.57798">
        <ele>13</ele>
        <time>2021-08-09T10:09:42.678Z</time>
      </trkpt>
      <trkpt lat="50.51411" lon="1.5779">
        <ele>15</ele>
        <time>2021-08-09T10:09:47.671Z</time>
      </trkpt>
      <trkpt lat="50.51408" lon="1.57786">
        <ele>15</ele>
        <time>2021-08-09T10:09:52.662Z</time>
      </trkpt>
      <trkpt lat="50.51402" lon="1.57781">
        <ele>14</ele>
        <time>2021-08-09T10:09:56.669Z</time>
      </trkpt>
      <trkpt lat="50.51395" lon="1.57785">
        <ele>14</ele>
        <time>2021-08-09T10:10:01.681Z</time>
      </trkpt>
      <trkpt lat="50.51389" lon="1.57805">
        <ele>13</ele>
        <time>2021-08-09T10:10:05.676Z</time>
      </trkpt>
    </trkseg>
  </trk>
</gpx>